createdAt,value
2018-09-28T00:00:28.851Z,8.69
2018-09-28T00:02:57.660Z,8.59
2018-09-28T00:05:26.323Z,8.63
2018-09-28T00:07:55.032Z,8.56
2018-09-28T00:10:23.768Z,8.40
2018-09-28T00:12:52.552Z,8.35
2018-09-28T00:15:21.267Z,8.52
2018-09-28T00:17:49.909Z,8.57
2018-09-28T00:20:18.623Z,8.61
2018-09-28T00:22:47.272Z,8.43
2018-09-28T00:25:15.965Z,8.16
2018-09-28T00:27:44.667Z,8.16
2018-09-28T00:30:13.377Z,8.28
2018-09-28T00:32:42.125Z,8.03
2018-09-28T00:35:10.839Z,7.87
2018-09-28T00:37:39.537Z,7.79
2018-09-28T00:40:08.295Z,7.71
2018-09-28T00:42:36.925Z,7.74
2018-09-28T00:45:05.703Z,8.00
2018-09-28T00:47:34.728Z,7.87
2018-09-28T00:50:03.467Z,7.93
2018-09-28T00:52:32.117Z,8.02
2018-09-28T00:55:00.820Z,7.59
2018-09-28T00:57:29.480Z,7.38
2018-09-28T00:59:58.108Z,7.62
2018-09-28T01:02:26.765Z,7.88
2018-09-28T01:04:55.428Z,7.73
2018-09-28T01:07:24.075Z,7.63
2018-09-28T01:09:52.713Z,7.10
2018-09-28T01:12:21.351Z,6.73
2018-09-28T01:14:50.008Z,6.98
2018-09-28T01:17:18.674Z,7.42
2018-09-28T01:19:47.303Z,7.74
2018-09-28T01:22:16.019Z,7.44
2018-09-28T01:24:44.639Z,6.66
2018-09-28T01:27:13.278Z,6.44
2018-09-28T01:29:41.907Z,6.25
2018-09-28T01:32:10.575Z,6.25
2018-09-28T01:34:39.251Z,6.38
2018-09-28T01:37:08.148Z,6.72
2018-09-28T01:39:36.857Z,7.09
2018-09-28T01:42:05.551Z,7.16
2018-09-28T01:44:34.167Z,6.90
2018-09-28T01:47:02.863Z,6.97
2018-09-28T01:49:31.566Z,7.01
2018-09-28T01:52:00.207Z,7.06
2018-09-28T01:54:28.873Z,7.39
2018-09-28T01:56:57.539Z,7.42
2018-09-28T01:59:26.342Z,7.11
2018-09-28T02:01:55.003Z,6.99
2018-09-28T02:04:23.833Z,6.99
2018-09-28T02:06:52.536Z,6.99
2018-09-28T02:09:21.186Z,7.20
2018-09-28T02:11:49.894Z,7.31
2018-09-28T02:14:18.533Z,7.37
2018-09-28T02:16:47.236Z,7.58
2018-09-28T02:19:15.895Z,7.50
2018-09-28T02:21:44.567Z,7.39
2018-09-28T02:24:13.219Z,7.11
2018-09-28T02:26:41.896Z,6.92
2018-09-28T02:29:10.573Z,6.59
2018-09-28T02:31:39.216Z,6.43
2018-09-28T02:34:07.867Z,6.32
2018-09-28T02:36:36.525Z,6.54
2018-09-28T02:39:07.053Z,6.82
2018-09-28T02:41:35.741Z,6.75
2018-09-28T02:44:04.506Z,7.05
2018-09-28T02:46:33.185Z,7.10
2018-09-28T02:49:02.109Z,7.07
2018-09-28T02:51:30.855Z,6.23
2018-09-28T02:53:59.520Z,5.95
2018-09-28T02:56:28.188Z,5.85
2018-09-28T02:58:56.845Z,5.70
2018-09-28T03:01:25.510Z,5.41
2018-09-28T03:03:54.257Z,5.34
2018-09-28T03:06:23.187Z,5.17
2018-09-28T03:08:51.752Z,5.19
2018-09-28T03:11:20.473Z,5.48
2018-09-28T03:13:49.120Z,5.28
2018-09-28T03:16:17.854Z,5.01
2018-09-28T03:18:46.623Z,4.82
2018-09-28T03:21:15.332Z,5.22
2018-09-28T03:23:44.013Z,5.58
2018-09-28T03:26:12.714Z,5.54
2018-09-28T03:28:41.360Z,5.90
2018-09-28T03:31:10.111Z,6.04
2018-09-28T03:33:38.753Z,6.29
2018-09-28T03:36:07.482Z,6.57
2018-09-28T03:38:36.751Z,6.32
2018-09-28T03:41:05.549Z,6.18
2018-09-28T03:43:34.280Z,6.05
2018-09-28T03:46:03.068Z,6.03
2018-09-28T03:48:31.712Z,5.66
2018-09-28T03:51:00.485Z,5.71
2018-09-28T03:53:29.133Z,5.78
2018-09-28T03:55:57.786Z,5.67
2018-09-28T03:58:26.495Z,5.80
2018-09-28T04:00:55.228Z,5.80
2018-09-28T04:03:23.901Z,5.66
2018-09-28T04:05:52.605Z,5.60
2018-09-28T04:08:21.268Z,5.65
2018-09-28T04:10:49.955Z,6.06
2018-09-28T04:13:18.647Z,6.24
2018-09-28T04:15:47.371Z,6.14
2018-09-28T04:18:16.124Z,6.23
2018-09-28T04:20:44.763Z,6.10
2018-09-28T04:23:13.449Z,6.10
2018-09-28T04:25:42.409Z,5.91
2018-09-28T04:28:11.084Z,6.04
2018-09-28T04:30:39.864Z,6.71
2018-09-28T04:33:08.659Z,7.32
2018-09-28T04:35:37.364Z,7.25
2018-09-28T04:38:06.015Z,6.89
2018-09-28T04:40:34.739Z,6.74
2018-09-28T04:43:03.562Z,7.37
2018-09-28T04:45:32.382Z,7.85
2018-09-28T04:48:01.476Z,7.33
2018-09-28T04:50:30.176Z,7.14
2018-09-28T04:52:58.835Z,7.29
2018-09-28T04:55:27.556Z,7.58
2018-09-28T04:57:56.204Z,7.69
2018-09-28T05:00:24.923Z,8.00
2018-09-28T05:02:53.684Z,8.29
2018-09-28T05:05:22.309Z,8.55
2018-09-28T05:07:51.196Z,8.61
2018-09-28T05:10:19.849Z,8.97
2018-09-28T05:12:48.490Z,8.91
2018-09-28T05:15:17.232Z,9.02
2018-09-28T05:17:45.884Z,9.29
2018-09-28T05:20:14.511Z,9.06
2018-09-28T05:22:43.413Z,9.60
2018-09-28T05:25:12.118Z,9.92
2018-09-28T05:27:40.847Z,9.95
2018-09-28T05:30:09.651Z,9.77
2018-09-28T05:32:38.513Z,9.74
2018-09-28T05:35:07.096Z,9.99
2018-09-28T05:37:35.737Z,10.40
2018-09-28T05:40:04.488Z,10.65
2018-09-28T05:42:33.123Z,10.27
2018-09-28T05:45:01.816Z,9.90
2018-09-28T05:47:30.466Z,10.61
2018-09-28T05:49:59.319Z,11.11
2018-09-28T05:52:28.008Z,11.20
2018-09-28T05:54:56.699Z,11.34
2018-09-28T05:57:25.427Z,11.37
2018-09-28T05:59:59.215Z,11.56
2018-09-28T06:02:33.097Z,11.58
2018-09-28T06:05:07.044Z,11.39
2018-09-28T06:07:35.883Z,11.20
2018-09-28T06:10:04.683Z,11.05
2018-09-28T06:12:33.526Z,10.62
2018-09-28T06:15:02.266Z,10.88
2018-09-28T06:17:30.999Z,10.96
2018-09-28T06:19:59.715Z,11.05
2018-09-28T06:22:28.507Z,11.38
2018-09-28T06:24:57.328Z,11.55
2018-09-28T06:27:26.075Z,11.62
2018-09-28T06:29:54.894Z,11.68
2018-09-28T06:32:23.625Z,11.32
2018-09-28T06:34:52.401Z,11.71
2018-09-28T06:37:21.211Z,11.78
2018-09-28T06:39:49.832Z,12.67
2018-09-28T06:42:18.573Z,12.46
2018-09-28T06:44:47.231Z,12.62
2018-09-28T06:47:15.848Z,13.07
2018-09-28T06:49:44.494Z,13.05
2018-09-28T06:52:13.139Z,13.70
2018-09-28T06:54:41.809Z,13.79
2018-09-28T06:57:10.589Z,14.04
2018-09-28T06:59:39.272Z,14.00
2018-09-28T07:02:08.021Z,14.35
2018-09-28T07:04:36.808Z,14.57
2018-09-28T07:07:05.555Z,14.52
2018-09-28T07:09:34.368Z,14.38
2018-09-28T07:12:03.032Z,14.27
2018-09-28T07:14:31.693Z,14.34
2018-09-28T07:17:00.714Z,14.57
2018-09-28T07:19:29.427Z,14.77
2018-09-28T07:21:58.168Z,14.69
2018-09-28T07:24:27.858Z,14.44
2018-09-28T07:26:56.512Z,14.37
2018-09-28T07:29:25.343Z,14.37
2018-09-28T07:31:54.244Z,14.77
2018-09-28T07:34:23.155Z,15.02
2018-09-28T07:36:51.907Z,14.94
2018-09-28T07:39:20.487Z,15.08
2018-09-28T07:41:49.269Z,15.35
2018-09-28T07:44:17.922Z,14.98
2018-09-28T07:46:46.804Z,15.07
2018-09-28T07:49:15.473Z,15.63
2018-09-28T07:51:44.255Z,15.99
2018-09-28T07:54:12.915Z,16.31
2018-09-28T07:56:41.621Z,16.36
2018-09-28T07:59:10.319Z,16.81
2018-09-28T08:01:39.134Z,16.56
2018-09-28T08:04:08.008Z,16.57
2018-09-28T08:06:36.792Z,17.12
2018-09-28T08:09:07.760Z,17.58
2018-09-28T08:11:36.499Z,17.73
2018-09-28T08:14:05.338Z,17.56
2018-09-28T08:16:34.150Z,17.51
2018-09-28T08:19:02.870Z,17.93
2018-09-28T08:21:31.688Z,17.93
2018-09-28T08:24:01.041Z,18.26
2018-09-28T08:26:29.722Z,18.17
2018-09-28T08:28:58.423Z,18.31
2018-09-28T08:31:27.074Z,18.51
2018-09-28T08:33:55.761Z,18.33
2018-09-28T08:36:24.563Z,18.07
2018-09-28T08:38:53.204Z,18.22
2018-09-28T08:41:21.855Z,18.54
2018-09-28T08:43:50.527Z,18.60
2018-09-28T08:46:19.547Z,18.86
2018-09-28T08:48:48.290Z,19.25
2018-09-28T08:51:17.105Z,18.74
2018-09-28T08:54:00.476Z,18.53
2018-09-28T08:56:29.191Z,19.00
2018-09-28T08:58:58.248Z,19.00
2018-09-28T09:01:26.983Z,18.81
2018-09-28T09:03:55.631Z,19.08
2018-09-28T09:06:24.394Z,19.04
2018-09-28T09:08:53.141Z,19.38
2018-09-28T09:11:21.868Z,19.90
2018-09-28T09:13:50.759Z,19.48
2018-09-28T09:16:19.591Z,19.47
2018-09-28T09:18:48.354Z,19.56
2018-09-28T09:21:17.103Z,19.11
2018-09-28T09:23:45.803Z,18.72
2018-09-28T09:26:14.548Z,19.47
2018-09-28T09:28:43.291Z,19.91
2018-09-28T09:31:11.975Z,19.57
2018-09-28T09:33:40.608Z,19.23
2018-09-28T09:36:09.296Z,19.56
2018-09-28T09:38:37.935Z,19.63
2018-09-28T09:41:07.000Z,19.75
2018-09-28T09:43:35.687Z,20.49
2018-09-28T09:46:04.336Z,20.24
2018-09-28T09:48:33.978Z,19.72
2018-09-28T09:51:02.725Z,19.95
2018-09-28T09:53:31.457Z,19.75
2018-09-28T09:56:00.150Z,20.39
2018-09-28T09:58:28.912Z,20.73
2018-09-28T10:01:02.780Z,20.50
2018-09-28T10:03:36.725Z,20.25
2018-09-28T10:06:05.535Z,20.48
2018-09-28T10:08:34.440Z,20.46
2018-09-28T10:11:03.773Z,20.11
2018-09-28T10:13:32.500Z,20.03
2018-09-28T10:16:02.408Z,20.02
2018-09-28T10:18:31.158Z,20.67
2018-09-28T10:20:59.928Z,20.67
2018-09-28T10:23:28.731Z,21.04
2018-09-28T10:25:57.581Z,20.85
2018-09-28T10:28:26.437Z,20.87
2018-09-28T10:30:55.163Z,20.78
2018-09-28T10:33:23.880Z,20.66
2018-09-28T10:35:52.677Z,20.64
2018-09-28T10:38:21.438Z,21.14
2018-09-28T10:40:50.304Z,21.52
2018-09-28T10:43:18.964Z,21.28
2018-09-28T10:45:47.707Z,21.17
2018-09-28T10:48:16.410Z,21.21
2018-09-28T10:50:45.106Z,21.57
2018-09-28T10:53:13.861Z,21.52
2018-09-28T10:55:42.519Z,21.31
2018-09-28T10:58:11.281Z,21.39
2018-09-28T11:00:39.935Z,21.30
2018-09-28T11:03:08.773Z,21.33
2018-09-28T11:05:37.576Z,21.39
2018-09-28T11:08:06.403Z,21.70
2018-09-28T11:10:35.085Z,22.41
2018-09-28T11:13:03.888Z,22.28
2018-09-28T11:15:32.652Z,21.55
2018-09-28T11:18:01.289Z,21.54
2018-09-28T11:20:30.040Z,21.73
2018-09-28T11:22:58.699Z,22.18
2018-09-28T11:25:27.391Z,22.49
2018-09-28T11:27:56.089Z,22.36
2018-09-28T11:30:24.810Z,22.42
2018-09-28T11:32:53.493Z,22.18
2018-09-28T11:35:22.161Z,21.95
2018-09-28T11:37:51.225Z,22.06
2018-09-28T11:40:19.832Z,22.59
2018-09-28T11:42:48.596Z,23.04
2018-09-28T11:45:17.301Z,22.76
2018-09-28T11:47:45.958Z,22.93
2018-09-28T11:50:14.736Z,23.11
2018-09-28T11:52:43.520Z,23.61
2018-09-28T11:55:12.261Z,23.72
2018-09-28T11:57:41.160Z,23.20
2018-09-28T12:00:12.620Z,22.77
2018-09-28T12:02:41.369Z,23.18
2018-09-28T12:05:10.049Z,22.63
2018-09-28T12:07:38.740Z,22.88
2018-09-28T12:10:07.588Z,23.64
2018-09-28T12:12:36.494Z,23.69
2018-09-28T12:15:05.379Z,23.12
2018-09-28T12:17:34.066Z,22.60
2018-09-28T12:20:02.752Z,21.88
2018-09-28T12:22:31.425Z,22.15
2018-09-28T12:25:00.220Z,22.22
2018-09-28T12:27:29.030Z,22.23
2018-09-28T12:29:57.775Z,22.25
2018-09-28T12:32:26.440Z,22.43
2018-09-28T12:34:55.135Z,21.91
2018-09-28T12:37:23.818Z,21.97
2018-09-28T12:39:52.640Z,22.05
2018-09-28T12:42:21.459Z,21.97
2018-09-28T12:44:50.250Z,21.68
2018-09-28T12:47:18.987Z,21.77
2018-09-28T12:49:47.747Z,22.19
2018-09-28T12:52:16.577Z,22.09
2018-09-28T12:54:45.353Z,21.97
2018-09-28T12:57:14.228Z,21.93
2018-09-28T12:59:43.084Z,22.02
2018-09-28T13:02:11.845Z,21.67
2018-09-28T13:04:40.611Z,21.49
2018-09-28T13:07:09.418Z,21.18
2018-09-28T13:09:38.159Z,21.05
2018-09-28T13:12:07.843Z,21.06
2018-09-28T13:14:36.639Z,20.99
2018-09-28T13:17:05.494Z,21.11
2018-09-28T13:19:34.353Z,21.04
2018-09-28T13:22:03.060Z,20.85
2018-09-28T13:24:32.054Z,20.74
2018-09-28T13:27:00.836Z,20.68
2018-09-28T13:29:29.818Z,20.67
2018-09-28T13:31:58.504Z,20.74
2018-09-28T13:34:27.281Z,20.79
2018-09-28T13:36:55.991Z,20.81
2018-09-28T13:39:24.661Z,20.67
2018-09-28T13:41:53.437Z,20.48
2018-09-28T13:44:22.186Z,20.30
2018-09-28T13:46:51.105Z,20.35
2018-09-28T13:49:19.744Z,20.42
2018-09-28T13:51:48.447Z,20.29
2018-09-28T13:54:17.208Z,20.33
2018-09-28T13:56:46.012Z,20.45
2018-09-28T13:59:14.761Z,20.48
2018-09-28T14:01:43.494Z,20.44
2018-09-28T14:04:12.145Z,20.39
2018-09-28T14:06:40.938Z,20.45
2018-09-28T14:09:10.372Z,20.25
2018-09-28T14:11:39.296Z,20.22
2018-09-28T14:14:08.116Z,20.26
2018-09-28T14:16:37.344Z,20.37
2018-09-28T14:19:06.267Z,20.13
2018-09-28T14:21:35.094Z,20.08
2018-09-28T14:24:03.784Z,20.07
2018-09-28T14:26:32.679Z,20.09
2018-09-28T14:29:01.392Z,20.09
2018-09-28T14:31:30.075Z,20.07
2018-09-28T14:33:58.852Z,20.00
2018-09-28T14:36:27.649Z,19.97
2018-09-28T14:38:56.272Z,20.01
2018-09-28T14:41:24.937Z,19.96
2018-09-28T14:43:53.772Z,19.78
2018-09-28T14:46:22.716Z,19.77
2018-09-28T14:48:51.491Z,19.79
2018-09-28T14:51:20.136Z,19.73
2018-09-28T14:53:48.805Z,19.59
2018-09-28T14:56:17.601Z,19.44
2018-09-28T14:58:46.316Z,19.44
2018-09-28T15:01:15.933Z,19.39
2018-09-28T15:03:44.589Z,19.35
2018-09-28T15:06:13.963Z,19.29
2018-09-28T15:08:42.760Z,19.18
2018-09-28T15:11:11.572Z,19.13
2018-09-28T15:13:40.214Z,19.02
2018-09-28T15:16:08.955Z,18.89
2018-09-28T15:18:37.659Z,18.79
2018-09-28T15:21:06.133Z,18.67
2018-09-28T15:23:34.948Z,18.61
2018-09-28T15:26:03.592Z,18.55
2018-09-28T15:28:32.249Z,18.50
2018-09-28T15:31:00.946Z,18.45
2018-09-28T15:33:29.586Z,18.42
2018-09-28T15:35:58.234Z,18.35
2018-09-28T15:38:26.941Z,18.26
2018-09-28T15:40:55.694Z,18.23
2018-09-28T15:43:24.700Z,18.17
2018-09-28T15:45:53.439Z,18.08
2018-09-28T15:48:22.257Z,17.93
2018-09-28T15:50:50.957Z,17.91
2018-09-28T15:53:19.645Z,17.81
2018-09-28T15:55:48.341Z,17.78
2018-09-28T15:58:17.029Z,17.67
2018-09-28T16:00:45.724Z,17.64
2018-09-28T16:03:14.542Z,17.52
2018-09-28T16:05:43.287Z,17.44
2018-09-28T16:08:11.954Z,17.40
2018-09-28T16:10:40.592Z,17.32
2018-09-28T16:13:09.221Z,17.25
2018-09-28T16:15:38.033Z,17.08
2018-09-28T16:18:06.712Z,16.95
2018-09-28T16:20:35.423Z,16.84
2018-09-28T16:23:04.243Z,16.77
2018-09-28T16:25:33.021Z,16.71
2018-09-28T16:28:01.693Z,16.64
2018-09-28T16:30:30.452Z,16.56
2018-09-28T16:32:59.209Z,16.49
2018-09-28T16:35:27.943Z,16.43
2018-09-28T16:37:56.614Z,16.33
2018-09-28T16:40:25.296Z,16.26
2018-09-28T16:42:54.112Z,16.19
2018-09-28T16:45:22.760Z,16.11
2018-09-28T16:47:51.443Z,16.07
2018-09-28T16:50:20.580Z,15.99
2018-09-28T16:52:49.388Z,15.89
2018-09-28T16:55:18.040Z,15.87
2018-09-28T16:57:46.753Z,15.79
2018-09-28T17:00:15.593Z,15.72
2018-09-28T17:02:44.268Z,15.70
2018-09-28T17:05:12.980Z,15.70
2018-09-28T17:07:41.668Z,15.63
2018-09-28T17:10:10.433Z,15.56
2018-09-28T17:12:39.244Z,15.52
2018-09-28T17:15:07.928Z,15.36
2018-09-28T17:17:36.645Z,15.14
2018-09-28T17:20:05.512Z,14.99
2018-09-28T17:22:34.161Z,14.89
2018-09-28T17:25:03.000Z,14.91
2018-09-28T17:27:31.794Z,14.83
2018-09-28T17:30:00.557Z,14.74
2018-09-28T17:32:29.581Z,14.68
2018-09-28T17:34:58.442Z,14.67
2018-09-28T17:37:27.100Z,14.65
2018-09-28T17:39:55.844Z,14.56
2018-09-28T17:42:24.489Z,14.42
2018-09-28T17:44:53.151Z,14.27
2018-09-28T17:47:21.836Z,14.15
2018-09-28T17:49:50.499Z,14.07
2018-09-28T17:52:19.241Z,13.99
2018-09-28T17:54:48.088Z,13.92
2018-09-28T17:57:16.867Z,13.84
2018-09-28T17:59:45.635Z,13.76
2018-09-28T18:02:14.378Z,13.73
2018-09-28T18:04:43.221Z,13.72
2018-09-28T18:07:11.901Z,13.74
2018-09-28T18:09:41.192Z,13.72
2018-09-28T18:12:09.968Z,13.66
2018-09-28T18:14:38.660Z,13.66
2018-09-28T18:17:07.394Z,13.63
2018-09-28T18:19:36.092Z,13.59
2018-09-28T18:22:05.041Z,13.56
2018-09-28T18:24:33.802Z,13.49
2018-09-28T18:27:02.499Z,13.45
2018-09-28T18:29:31.144Z,11.62
2018-09-28T18:31:59.858Z,13.32
2018-09-28T18:34:28.523Z,13.27
2018-09-28T18:36:57.175Z,13.21
2018-09-28T18:39:25.954Z,13.19
2018-09-28T18:41:54.620Z,13.19
2018-09-28T18:44:23.344Z,13.17
2018-09-28T18:46:51.984Z,13.14
2018-09-28T18:49:21.078Z,13.10
2018-09-28T18:51:49.847Z,13.08
2018-09-28T18:54:18.500Z,13.01
2018-09-28T18:56:47.275Z,12.95
2018-09-28T18:59:15.928Z,12.94
2018-09-28T19:01:44.612Z,12.95
2018-09-28T19:04:13.348Z,12.93
2018-09-28T19:06:42.091Z,12.87
2018-09-28T19:09:12.022Z,12.83
2018-09-28T19:11:41.193Z,12.76
2018-09-28T19:14:09.885Z,12.80
2018-09-28T19:16:38.600Z,12.69
2018-09-28T19:19:07.310Z,12.65
2018-09-28T19:21:36.003Z,12.65
2018-09-28T19:24:04.700Z,12.75
2018-09-28T19:26:33.413Z,12.86
2018-09-28T19:29:02.151Z,12.87
2018-09-28T19:31:30.944Z,12.84
2018-09-28T19:33:59.621Z,12.81
2018-09-28T19:36:28.360Z,12.78
2018-09-28T19:38:57.308Z,12.73
2018-09-28T19:41:26.025Z,12.71
2018-09-28T19:43:54.834Z,12.68
2018-09-28T19:46:23.609Z,12.65
2018-09-28T19:48:52.331Z,12.63
2018-09-28T19:51:21.065Z,12.63
2018-09-28T19:53:49.801Z,12.57
2018-09-28T19:56:18.588Z,12.51
2018-09-28T19:58:47.236Z,12.56
2018-09-28T20:01:16.270Z,12.59
2018-09-28T20:03:45.641Z,12.56
2018-09-28T20:06:14.371Z,12.45
2018-09-28T20:08:43.226Z,12.40
2018-09-28T20:11:12.012Z,12.38
2018-09-28T20:13:40.719Z,12.34
2018-09-28T20:16:09.485Z,11.02
2018-09-28T20:18:38.200Z,12.35
2018-09-28T20:21:07.300Z,12.07
2018-09-28T20:23:36.062Z,12.24
2018-09-28T20:26:04.852Z,12.19
2018-09-28T20:28:33.628Z,12.14
2018-09-28T20:31:02.365Z,12.05
2018-09-28T20:33:31.115Z,12.02
2018-09-28T20:35:59.768Z,12.02
2018-09-28T20:38:28.497Z,12.03
2018-09-28T20:40:57.204Z,12.04
2018-09-28T20:43:25.975Z,12.04
2018-09-28T20:45:54.661Z,12.04
2018-09-28T20:48:23.372Z,11.94
2018-09-28T20:50:52.048Z,11.99
2018-09-28T20:53:20.852Z,11.98
2018-09-28T20:55:49.517Z,11.92
2018-09-28T20:58:18.169Z,11.84
2018-09-28T21:00:46.858Z,11.76
2018-09-28T21:03:15.498Z,11.67
2018-09-28T21:05:44.143Z,11.55
2018-09-28T21:08:12.791Z,11.49
2018-09-28T21:10:41.741Z,11.43
2018-09-28T21:13:10.452Z,11.41
2018-09-28T21:15:39.118Z,11.41
2018-09-28T21:18:07.843Z,11.44
2018-09-28T21:20:36.533Z,11.46
2018-09-28T21:23:05.212Z,11.45
2018-09-28T21:25:34.077Z,11.42
2018-09-28T21:28:02.745Z,11.42
2018-09-28T21:30:31.467Z,11.39
2018-09-28T21:33:00.128Z,11.40
2018-09-28T21:35:29.009Z,11.43
2018-09-28T21:37:57.772Z,11.47
2018-09-28T21:40:26.488Z,11.56
2018-09-28T21:42:55.312Z,11.54
2018-09-28T21:45:24.062Z,11.55
2018-09-28T21:47:52.768Z,11.56
2018-09-28T21:50:21.575Z,11.62
2018-09-28T21:52:50.292Z,11.62
2018-09-28T21:55:19.083Z,11.58
2018-09-28T21:57:47.938Z,11.59
2018-09-28T22:00:16.648Z,11.62
2018-09-28T22:02:45.340Z,11.62
2018-09-28T22:05:14.076Z,11.62
2018-09-28T22:07:42.924Z,11.61
2018-09-28T22:10:11.659Z,11.54
2018-09-28T22:12:40.372Z,11.52
2018-09-28T22:15:09.021Z,11.54
2018-09-28T22:17:37.785Z,11.53
2018-09-28T22:20:06.940Z,11.51
2018-09-28T22:22:35.608Z,11.52
2018-09-28T22:25:04.333Z,11.48
2018-09-28T22:27:32.957Z,11.45
2018-09-28T22:30:01.637Z,11.44
2018-09-28T22:32:30.317Z,11.44
2018-09-28T22:34:59.056Z,10.00
2018-09-28T22:37:27.701Z,11.50
2018-09-28T22:39:56.494Z,11.54
2018-09-28T22:42:25.209Z,11.56
2018-09-28T22:44:54.006Z,11.54
2018-09-28T22:47:22.781Z,11.49
2018-09-28T22:49:51.587Z,11.45
2018-09-28T22:52:20.269Z,11.43
2018-09-28T22:54:48.941Z,11.38
2018-09-28T22:57:17.665Z,11.39
2018-09-28T22:59:46.414Z,11.39
2018-09-28T23:02:15.206Z,11.42
2018-09-28T23:04:43.900Z,11.50
2018-09-28T23:07:12.700Z,11.56
2018-09-28T23:09:41.395Z,11.52
2018-09-28T23:12:10.067Z,11.48
2018-09-28T23:14:38.836Z,11.44
2018-09-28T23:17:07.639Z,11.44
2018-09-28T23:19:36.369Z,11.41
2018-09-28T23:22:05.152Z,11.43
2018-09-28T23:24:33.817Z,11.50
2018-09-28T23:27:02.574Z,11.50
2018-09-28T23:29:31.238Z,11.50
2018-09-28T23:31:59.964Z,11.44
2018-09-28T23:34:28.600Z,11.44
2018-09-28T23:36:57.277Z,11.42
2018-09-28T23:39:25.958Z,11.06
2018-09-28T23:41:54.717Z,11.29
2018-09-28T23:44:23.386Z,11.28
2018-09-28T23:46:52.121Z,11.27
2018-09-28T23:49:20.938Z,11.22
2018-09-28T23:51:49.951Z,11.24
2018-09-28T23:54:18.762Z,11.19
2018-09-28T23:56:47.742Z,11.17
2018-09-28T23:59:16.476Z,11.14
